createdAt,value
2018-07-27T00:01:14.902Z,62.59
2018-07-27T00:01:53.908Z,62.79
2018-07-27T00:02:53.934Z,63.18
2018-07-27T00:03:53.961Z,63.08
2018-07-27T00:04:53.985Z,62.98
2018-07-27T00:05:54.011Z,63.18
2018-07-27T00:07:15.054Z,62.98
2018-07-27T00:07:54.066Z,62.59
2018-07-27T00:08:54.089Z,63.18
2018-07-27T00:09:54.112Z,62.69
2018-07-27T00:10:54.138Z,62.50
2018-07-27T00:11:54.162Z,62.59
2018-07-27T00:13:15.205Z,62.59
2018-07-27T00:13:54.219Z,62.40
2018-07-27T00:14:54.243Z,62.88
2018-07-27T00:15:54.268Z,62.40
2018-07-27T00:16:54.298Z,62.50
2018-07-27T00:17:54.316Z,62.59
2018-07-27T00:19:15.363Z,62.88
2018-07-27T00:19:54.373Z,62.50
2018-07-27T00:20:54.395Z,63.08
2018-07-27T00:21:54.420Z,62.30
2018-07-27T00:22:54.452Z,62.40
2018-07-27T00:23:54.472Z,62.69
2018-07-27T00:25:15.517Z,62.88
2018-07-27T00:25:54.525Z,62.69
2018-07-27T00:26:54.551Z,62.50
2018-07-27T00:27:54.577Z,62.59
2018-07-27T00:28:54.604Z,62.50
2018-07-27T00:29:54.626Z,62.30
2018-07-27T00:31:15.669Z,62.50
2018-07-27T00:31:54.676Z,62.40
2018-07-27T00:32:54.703Z,62.30
2018-07-27T00:33:54.736Z,62.50
2018-07-27T00:34:54.758Z,62.50
2018-07-27T00:35:54.787Z,62.30
2018-07-27T00:37:15.825Z,62.40
2018-07-27T00:37:54.835Z,62.69
2018-07-27T00:38:54.860Z,63.08
2018-07-27T00:39:54.886Z,62.98
2018-07-27T00:40:54.911Z,62.59
2018-07-27T00:41:54.935Z,63.18
2018-07-27T00:43:15.979Z,62.69
2018-07-27T00:43:54.987Z,63.18
2018-07-27T00:44:55.012Z,62.69
2018-07-27T00:45:55.041Z,62.40
2018-07-27T00:46:55.071Z,62.69
2018-07-27T00:47:55.097Z,62.50
2018-07-27T00:49:16.136Z,62.40
2018-07-27T00:49:55.141Z,62.50
2018-07-27T00:50:55.167Z,62.40
2018-07-27T00:51:55.193Z,62.30
2018-07-27T00:52:55.217Z,62.69
2018-07-27T00:53:55.244Z,62.59
2018-07-27T00:55:16.287Z,62.59
2018-07-27T00:55:55.297Z,62.59
2018-07-27T00:56:55.320Z,62.59
2018-07-27T00:57:55.350Z,62.59
2018-07-27T00:58:55.374Z,62.40
2018-07-27T00:59:55.401Z,62.59
2018-07-27T01:01:16.446Z,62.50
2018-07-27T01:01:55.453Z,62.50
2018-07-27T01:02:55.475Z,62.59
2018-07-27T01:03:55.500Z,62.50
2018-07-27T01:04:55.526Z,62.50
2018-07-27T01:05:55.558Z,62.40
2018-07-27T01:07:16.596Z,62.79
2018-07-27T01:07:55.605Z,62.50
2018-07-27T01:08:55.630Z,62.79
2018-07-27T01:09:55.656Z,62.59
2018-07-27T01:10:55.682Z,62.69
2018-07-27T01:11:55.708Z,62.69
2018-07-27T01:13:16.752Z,62.59
2018-07-27T01:13:55.758Z,62.59
2018-07-27T01:14:55.783Z,62.50
2018-07-27T01:15:55.813Z,62.30
2018-07-27T01:16:55.836Z,62.50
2018-07-27T01:17:55.862Z,62.88
2018-07-27T01:19:16.912Z,62.50
2018-07-27T01:19:55.913Z,62.98
2018-07-27T01:20:55.939Z,62.59
2018-07-27T01:21:55.965Z,62.59
2018-07-27T01:22:55.988Z,62.50
2018-07-27T01:23:56.017Z,62.59
2018-07-27T01:25:17.063Z,62.40
2018-07-27T01:25:56.067Z,62.69
2018-07-27T01:26:56.094Z,62.50
2018-07-27T01:27:56.117Z,62.98
2018-07-27T01:28:56.143Z,62.50
2018-07-27T01:29:56.167Z,62.40
2018-07-27T01:31:17.210Z,62.40
2018-07-27T01:31:56.219Z,62.40
2018-07-27T01:32:56.245Z,62.50
2018-07-27T01:33:56.276Z,62.40
2018-07-27T01:34:56.298Z,62.40
2018-07-27T01:35:56.323Z,62.50
2018-07-27T01:37:17.365Z,62.59
2018-07-27T01:37:56.372Z,62.50
2018-07-27T01:38:56.399Z,62.40
2018-07-27T01:39:56.422Z,62.69
2018-07-27T01:40:56.454Z,62.59
2018-07-27T01:41:56.475Z,62.40
2018-07-27T01:43:17.517Z,62.30
2018-07-27T01:43:56.525Z,62.40
2018-07-27T01:44:56.550Z,62.40
2018-07-27T01:45:56.580Z,62.69
2018-07-27T01:46:56.603Z,62.59
2018-07-27T01:47:56.629Z,62.50
2018-07-27T01:49:17.675Z,62.11
2018-07-27T01:49:56.679Z,62.21
2018-07-27T01:50:56.717Z,62.50
2018-07-27T01:51:56.729Z,62.21
2018-07-27T01:52:56.754Z,62.40
2018-07-27T01:53:56.783Z,62.50
2018-07-27T01:55:17.829Z,62.21
2018-07-27T01:55:56.834Z,62.08
2018-07-27T01:56:56.860Z,62.40
2018-07-27T01:57:56.886Z,62.11
2018-07-27T01:58:56.911Z,62.21
2018-07-27T01:59:56.947Z,62.21
2018-07-27T02:01:17.979Z,62.21
2018-07-27T02:01:56.987Z,62.21
2018-07-27T02:02:57.011Z,62.11
2018-07-27T02:03:57.037Z,62.21
2018-07-27T02:04:57.063Z,62.50
2018-07-27T02:05:57.110Z,62.50
2018-07-27T02:07:18.138Z,62.21
2018-07-27T02:07:57.144Z,62.21
2018-07-27T02:08:57.167Z,62.50
2018-07-27T02:09:57.190Z,62.50
2018-07-27T02:10:57.219Z,62.01
2018-07-27T02:11:57.240Z,61.98
2018-07-27T02:13:18.284Z,62.01
2018-07-27T02:13:57.292Z,62.01
2018-07-27T02:14:57.317Z,62.11
2018-07-27T02:15:57.344Z,62.01
2018-07-27T02:16:57.368Z,62.08
2018-07-27T02:17:57.402Z,62.11
2018-07-27T02:19:18.439Z,61.98
2018-07-27T02:19:57.447Z,62.18
2018-07-27T02:20:57.473Z,62.08
2018-07-27T02:21:57.496Z,62.37
2018-07-27T02:22:57.522Z,62.37
2018-07-27T02:23:57.547Z,62.08
2018-07-27T02:25:18.591Z,62.01
2018-07-27T02:25:57.600Z,61.98
2018-07-27T02:26:57.627Z,62.18
2018-07-27T02:27:57.651Z,61.98
2018-07-27T02:28:57.681Z,62.37
2018-07-27T02:29:57.705Z,62.18
2018-07-27T02:31:18.746Z,62.27
2018-07-27T02:31:57.755Z,62.08
2018-07-27T02:32:57.781Z,61.98
2018-07-27T02:33:57.839Z,62.18
2018-07-27T02:34:57.828Z,62.27
2018-07-27T02:35:57.858Z,62.18
2018-07-27T02:37:18.899Z,62.08
2018-07-27T02:37:57.909Z,62.11
2018-07-27T02:38:57.933Z,62.18
2018-07-27T02:39:57.994Z,62.08
2018-07-27T02:40:57.984Z,62.27
2018-07-27T02:41:58.008Z,62.30
2018-07-27T02:43:19.058Z,61.89
2018-07-27T02:43:58.066Z,62.08
2018-07-27T02:44:58.082Z,61.89
2018-07-27T02:45:58.110Z,62.18
2018-07-27T02:46:58.136Z,61.89
2018-07-27T02:47:58.160Z,61.82
2018-07-27T02:49:19.202Z,62.08
2018-07-27T02:49:58.213Z,61.98
2018-07-27T02:50:58.241Z,62.08
2018-07-27T02:51:58.261Z,61.98
2018-07-27T02:52:58.287Z,61.98
2018-07-27T02:53:58.312Z,61.82
2018-07-27T02:55:19.383Z,62.08
2018-07-27T02:55:58.364Z,61.89
2018-07-27T02:56:58.389Z,61.79
2018-07-27T02:57:58.416Z,61.82
2018-07-27T02:58:58.444Z,61.60
2018-07-27T02:59:58.466Z,61.60
2018-07-27T03:01:19.511Z,62.18
2018-07-27T03:01:58.518Z,62.27
2018-07-27T03:02:58.544Z,62.18
2018-07-27T03:03:58.567Z,62.18
2018-07-27T03:04:58.594Z,61.89
2018-07-27T03:05:58.618Z,62.27
2018-07-27T03:07:19.673Z,61.98
2018-07-27T03:07:58.668Z,62.37
2018-07-27T03:08:58.694Z,62.18
2018-07-27T03:09:58.724Z,62.18
2018-07-27T03:10:58.752Z,62.18
2018-07-27T03:11:58.771Z,62.56
2018-07-27T03:13:19.818Z,62.37
2018-07-27T03:13:58.824Z,62.56
2018-07-27T03:14:58.846Z,62.34
2018-07-27T03:15:58.874Z,62.44
2018-07-27T03:16:58.899Z,62.56
2018-07-27T03:17:58.923Z,62.27
2018-07-27T03:19:19.968Z,62.73
2018-07-27T03:19:58.974Z,62.63
2018-07-27T03:20:58.998Z,62.53
2018-07-27T03:21:59.026Z,62.53
2018-07-27T03:22:59.059Z,62.34
2018-07-27T03:23:59.077Z,62.53
2018-07-27T03:25:20.119Z,62.44
2018-07-27T03:25:59.127Z,62.82
2018-07-27T03:26:59.151Z,62.34
2018-07-27T03:27:59.176Z,62.82
2018-07-27T03:28:59.202Z,62.44
2018-07-27T03:29:59.229Z,62.44
2018-07-27T03:31:20.284Z,62.63
2018-07-27T03:31:59.279Z,62.63
2018-07-27T03:32:59.305Z,62.63
2018-07-27T03:33:59.330Z,62.92
2018-07-27T03:34:59.356Z,62.82
2018-07-27T03:35:59.422Z,63.02
2018-07-27T03:37:20.421Z,63.11
2018-07-27T03:37:59.431Z,62.92
2018-07-27T03:38:59.457Z,62.92
2018-07-27T03:39:59.481Z,63.02
2018-07-27T03:40:59.509Z,63.02
2018-07-27T03:41:59.554Z,63.02
2018-07-27T03:43:20.574Z,63.02
2018-07-27T03:43:59.582Z,62.82
2018-07-27T03:44:59.606Z,63.11
2018-07-27T03:45:59.633Z,63.11
2018-07-27T03:46:59.661Z,63.02
2018-07-27T03:47:59.684Z,62.53
2018-07-27T03:49:20.727Z,62.53
2018-07-27T03:49:59.734Z,62.27
2018-07-27T03:50:59.764Z,62.56
2018-07-27T03:51:59.784Z,62.56
2018-07-27T03:52:59.811Z,62.47
2018-07-27T03:53:59.861Z,62.44
2018-07-27T03:55:20.876Z,62.53
2018-07-27T03:55:59.884Z,62.56
2018-07-27T03:56:59.909Z,62.27
2018-07-27T03:57:59.936Z,62.27
2018-07-27T03:58:59.962Z,62.37
2018-07-27T03:59:59.987Z,62.95
2018-07-27T04:01:21.030Z,62.37
2018-07-27T04:02:00.037Z,62.47
2018-07-27T04:03:00.062Z,62.47
2018-07-27T04:04:00.087Z,62.66
2018-07-27T04:05:00.117Z,62.18
2018-07-27T04:06:00.138Z,61.89
2018-07-27T04:07:21.237Z,61.43
2018-07-27T04:08:00.188Z,60.75
2018-07-27T04:09:00.214Z,59.82
2018-07-27T04:10:00.240Z,58.98
2018-07-27T04:11:00.265Z,58.52
2018-07-27T04:12:00.293Z,57.55
2018-07-27T04:13:21.338Z,57.29
2018-07-27T04:14:00.342Z,56.13
2018-07-27T04:15:00.378Z,56.05
2018-07-27T04:16:00.392Z,55.28
2018-07-27T04:17:00.417Z,54.53
2018-07-27T04:18:00.447Z,54.44
2018-07-27T04:19:21.491Z,53.95
2018-07-27T04:20:00.501Z,53.39
2018-07-27T04:21:00.525Z,53.30
2018-07-27T04:22:00.552Z,53.10
2018-07-27T04:23:00.578Z,53.00
2018-07-27T04:24:00.607Z,53.10
2018-07-27T04:25:21.645Z,52.91
2018-07-27T04:26:00.653Z,52.91
2018-07-27T04:27:00.682Z,52.91
2018-07-27T04:28:00.713Z,52.55
2018-07-27T04:29:00.734Z,52.94
2018-07-27T04:30:00.763Z,52.35
2018-07-27T04:31:21.811Z,52.45
2018-07-27T04:32:00.816Z,52.06
2018-07-27T04:33:00.845Z,51.89
2018-07-27T04:34:00.869Z,51.50
2018-07-27T04:35:00.897Z,51.21
2018-07-27T04:36:00.923Z,50.63
2018-07-27T04:37:21.970Z,50.75
2018-07-27T04:38:00.981Z,50.07
2018-07-27T04:39:01.009Z,49.90
2018-07-27T04:40:01.037Z,49.90
2018-07-27T04:41:01.071Z,49.12
2018-07-27T04:42:01.093Z,48.66
2018-07-27T04:43:22.140Z,47.98
2018-07-27T04:44:01.146Z,48.39
2018-07-27T04:45:01.175Z,47.52
2018-07-27T04:46:01.204Z,47.05
2018-07-27T04:47:01.234Z,46.88
2018-07-27T04:48:01.261Z,45.64
2018-07-27T04:49:22.340Z,44.76
2018-07-27T04:50:01.318Z,44.68
2018-07-27T04:51:01.347Z,44.41
2018-07-27T04:52:01.387Z,43.46
2018-07-27T04:53:01.403Z,43.46
2018-07-27T04:54:01.434Z,42.50
2018-07-27T04:55:22.480Z,42.21
2018-07-27T04:56:01.495Z,41.91
2018-07-27T04:57:01.520Z,42.11
2018-07-27T04:58:01.553Z,41.91
2018-07-27T04:59:01.583Z,42.11
2018-07-27T05:00:01.612Z,42.58
2018-07-27T05:01:22.657Z,42.77
2018-07-27T05:02:01.669Z,43.36
2018-07-27T05:03:01.696Z,43.53
2018-07-27T05:04:01.728Z,43.71
2018-07-27T05:05:01.758Z,44.58
2018-07-27T05:06:01.794Z,44.78
2018-07-27T05:07:22.842Z,44.85
2018-07-27T05:08:01.852Z,45.15
2018-07-27T05:09:01.880Z,45.44
2018-07-27T05:10:01.911Z,45.64
2018-07-27T05:11:01.941Z,46.00
2018-07-27T05:12:01.971Z,45.71
2018-07-27T05:13:23.020Z,45.71
2018-07-27T05:14:02.029Z,45.71
2018-07-27T05:15:02.060Z,45.71
2018-07-27T05:16:02.091Z,45.90
2018-07-27T05:17:02.123Z,46.00
2018-07-27T05:18:02.161Z,45.90
2018-07-27T05:19:23.205Z,46.30
2018-07-27T05:20:02.215Z,46.08
2018-07-27T05:21:02.244Z,46.08
2018-07-27T05:22:02.278Z,46.86
2018-07-27T05:23:02.312Z,46.27
2018-07-27T05:24:02.342Z,46.37
2018-07-27T05:25:23.387Z,46.66
2018-07-27T05:26:02.398Z,46.47
2018-07-27T05:27:02.431Z,46.66
2018-07-27T05:28:02.461Z,47.05
2018-07-27T05:29:02.493Z,46.66
2018-07-27T05:30:02.525Z,46.66
2018-07-27T05:31:23.574Z,46.56
2018-07-27T05:32:02.586Z,46.10
2018-07-27T05:33:02.620Z,45.51
2018-07-27T05:34:02.647Z,45.25
2018-07-27T05:35:02.676Z,44.58
2018-07-27T05:36:02.707Z,43.95
2018-07-27T05:37:23.759Z,42.79
2018-07-27T05:38:02.769Z,41.93
2018-07-27T05:39:02.801Z,41.27
2018-07-27T05:40:02.828Z,40.80
2018-07-27T05:41:02.858Z,40.50
2018-07-27T05:42:02.887Z,39.64
2018-07-27T05:43:23.936Z,39.27
2018-07-27T05:44:02.947Z,38.78
2018-07-27T05:45:02.979Z,38.78
2018-07-27T05:46:03.011Z,38.21
2018-07-27T05:47:03.066Z,38.04
2018-07-27T05:48:03.069Z,37.45
2018-07-27T05:49:24.119Z,36.96
2018-07-27T05:50:03.127Z,37.07
2018-07-27T05:51:03.158Z,36.39
2018-07-27T05:52:03.187Z,36.39
2018-07-27T05:53:03.219Z,36.40
2018-07-27T05:54:03.250Z,35.72
2018-07-27T05:55:24.302Z,35.44
2018-07-27T05:56:03.307Z,35.64
2018-07-27T05:57:03.339Z,35.46
2018-07-27T05:58:03.373Z,34.77
2018-07-27T05:59:03.400Z,34.49
2018-07-27T06:00:03.428Z,34.30
2018-07-27T06:01:24.479Z,34.69
2018-07-27T06:02:03.488Z,34.30
2018-07-27T06:03:03.579Z,33.70
2018-07-27T06:04:03.558Z,33.22
2018-07-27T06:05:03.585Z,33.53
2018-07-27T06:06:03.614Z,33.23
2018-07-27T06:07:24.664Z,33.53
2018-07-27T06:08:03.676Z,33.03
2018-07-27T06:09:03.704Z,33.13
2018-07-27T06:10:03.740Z,33.03
2018-07-27T06:11:03.797Z,32.86
2018-07-27T06:12:03.798Z,32.76
2018-07-27T06:13:24.849Z,32.48
2018-07-27T06:14:03.861Z,32.56
2018-07-27T06:15:03.893Z,32.57
2018-07-27T06:16:03.924Z,32.57
2018-07-27T06:17:03.958Z,32.46
2018-07-27T06:18:04.164Z,32.48
2018-07-27T06:19:25.041Z,32.48
2018-07-27T06:20:04.053Z,32.76
2018-07-27T06:21:04.118Z,33.22
2018-07-27T06:22:04.119Z,35.42
2018-07-27T06:23:04.148Z,36.47
2018-07-27T06:24:04.215Z,37.51
2018-07-27T06:25:25.235Z,38.37
2018-07-27T06:26:04.246Z,38.96
2018-07-27T06:27:04.284Z,38.39
2018-07-27T06:28:04.335Z,37.65
2018-07-27T06:29:04.344Z,36.21
2018-07-27T06:30:04.441Z,34.77
2018-07-27T06:31:25.428Z,34.38
2018-07-27T06:32:04.440Z,34.77
2018-07-27T06:33:04.471Z,34.47
2018-07-27T06:34:04.503Z,35.41
2018-07-27T06:35:04.534Z,36.94
2018-07-27T06:36:04.567Z,38.37
2018-07-27T06:37:25.625Z,39.31
2018-07-27T06:38:04.633Z,39.98
2018-07-27T06:39:04.722Z,40.84
2018-07-27T06:40:04.700Z,41.41
2018-07-27T06:41:04.725Z,42.19
2018-07-27T06:42:04.757Z,42.94
2018-07-27T06:43:25.808Z,42.75
2018-07-27T06:44:04.821Z,42.93
2018-07-27T06:45:04.854Z,43.22
2018-07-27T06:46:04.881Z,43.68
2018-07-27T06:47:04.915Z,43.88
2018-07-27T06:48:04.944Z,44.17
2018-07-27T06:49:25.996Z,44.27
2018-07-27T06:50:05.013Z,44.54
2018-07-27T06:51:05.040Z,44.73
2018-07-27T06:52:05.070Z,44.54
2018-07-27T06:53:05.098Z,45.12
2018-07-27T06:54:05.133Z,45.20
2018-07-27T06:55:26.177Z,45.29
2018-07-27T06:56:05.191Z,45.10
2018-07-27T06:57:05.222Z,45.39
2018-07-27T06:58:05.251Z,45.39
2018-07-27T06:59:05.288Z,46.15
2018-07-27T07:00:05.312Z,46.15
2018-07-27T07:01:26.385Z,46.05
2018-07-27T07:02:05.376Z,46.15
2018-07-27T07:03:05.402Z,46.34
2018-07-27T07:04:05.441Z,46.54
2018-07-27T07:05:05.463Z,46.73
2018-07-27T07:06:05.489Z,46.71
2018-07-27T07:07:26.538Z,46.61
2018-07-27T07:08:05.548Z,46.61
2018-07-27T07:09:05.618Z,46.81
2018-07-27T07:10:05.610Z,47.49
2018-07-27T07:11:05.643Z,47.49
2018-07-27T07:12:05.669Z,47.39
2018-07-27T07:13:26.715Z,47.39
2018-07-27T07:14:05.728Z,47.00
2018-07-27T07:15:05.756Z,47.30
2018-07-27T07:16:05.788Z,47.27
2018-07-27T07:17:05.812Z,47.56
2018-07-27T07:18:05.845Z,47.37
2018-07-27T07:19:26.890Z,47.56
2018-07-27T07:20:05.901Z,47.27
2018-07-27T07:21:05.933Z,47.08
2018-07-27T07:22:05.961Z,47.56
2018-07-27T07:23:05.992Z,47.37
2018-07-27T07:24:06.019Z,47.56
2018-07-27T07:25:27.203Z,47.76
2018-07-27T07:26:06.392Z,48.54
2018-07-27T07:27:06.104Z,48.05
2018-07-27T07:28:06.132Z,48.03
2018-07-27T07:29:06.165Z,48.03
2018-07-27T07:30:06.195Z,48.13
2018-07-27T07:31:27.241Z,48.41
2018-07-27T07:32:06.253Z,48.32
2018-07-27T07:33:06.290Z,48.13
2018-07-27T07:34:06.308Z,48.51
2018-07-27T07:35:06.335Z,47.93
2018-07-27T07:36:06.363Z,48.32
2018-07-27T07:37:27.410Z,48.03
2018-07-27T07:38:06.419Z,48.13
2018-07-27T07:39:06.467Z,48.03
2018-07-27T07:40:06.480Z,47.74
2018-07-27T07:41:06.510Z,47.83
2018-07-27T07:42:06.538Z,47.83
2018-07-27T07:43:27.593Z,47.81
2018-07-27T07:44:06.603Z,48.10
2018-07-27T07:45:06.654Z,48.10
2018-07-27T07:46:06.647Z,48.30
2018-07-27T07:47:06.678Z,48.00
2018-07-27T07:48:06.702Z,48.00
2018-07-27T07:49:27.799Z,48.00
2018-07-27T07:50:06.762Z,48.20
2018-07-27T07:51:06.794Z,47.71
2018-07-27T07:52:06.823Z,47.61
2018-07-27T07:53:06.868Z,47.71
2018-07-27T07:54:06.888Z,47.42
2018-07-27T07:55:27.932Z,47.42
2018-07-27T07:56:06.935Z,47.42
2018-07-27T07:57:06.976Z,47.52
2018-07-27T07:58:06.992Z,47.03
2018-07-27T07:59:07.020Z,47.61
2018-07-27T08:00:07.051Z,47.52
2018-07-27T08:01:28.091Z,47.23
2018-07-27T08:02:07.105Z,47.13
2018-07-27T08:03:07.134Z,47.23
2018-07-27T08:04:07.171Z,47.11
2018-07-27T08:05:07.183Z,47.11
2018-07-27T08:06:07.211Z,47.32
2018-07-27T08:07:28.264Z,47.11
2018-07-27T08:08:07.268Z,47.20
2018-07-27T08:09:07.297Z,47.20
2018-07-27T08:10:07.327Z,47.30
2018-07-27T08:11:07.435Z,47.01
2018-07-27T08:12:07.386Z,47.11
2018-07-27T08:13:28.428Z,47.01
2018-07-27T08:14:07.442Z,47.20
2018-07-27T08:15:07.466Z,47.40
2018-07-27T08:16:07.491Z,46.72
2018-07-27T08:17:07.522Z,47.40
2018-07-27T08:18:07.549Z,46.72
2018-07-27T08:19:28.597Z,46.91
2018-07-27T08:20:07.604Z,46.91
2018-07-27T08:21:07.647Z,46.72
2018-07-27T08:22:07.663Z,46.62
2018-07-27T08:23:07.688Z,46.62
2018-07-27T08:24:07.721Z,47.01
2018-07-27T08:25:28.762Z,46.72
2018-07-27T08:26:07.771Z,46.62
2018-07-27T08:27:07.796Z,46.81
2018-07-27T08:28:07.825Z,46.50
2018-07-27T08:29:07.857Z,46.60
2018-07-27T08:30:07.882Z,46.60
2018-07-27T08:31:28.932Z,46.69
2018-07-27T08:32:07.936Z,46.50
2018-07-27T08:33:07.962Z,46.69
2018-07-27T08:34:07.996Z,46.41
2018-07-27T08:35:08.018Z,46.41
2018-07-27T08:36:08.047Z,46.69
2018-07-27T08:37:29.092Z,46.50
2018-07-27T08:38:08.103Z,46.31
2018-07-27T08:39:08.132Z,46.21
2018-07-27T08:40:08.161Z,45.92
2018-07-27T08:41:08.187Z,46.01
2018-07-27T08:42:08.213Z,45.72
2018-07-27T08:43:29.261Z,45.43
2018-07-27T08:44:08.268Z,46.01
2018-07-27T08:45:08.296Z,45.92
2018-07-27T08:46:08.322Z,45.62
2018-07-27T08:47:08.365Z,46.11
2018-07-27T08:48:08.377Z,45.62
2018-07-27T08:49:29.424Z,45.72
2018-07-27T08:50:08.443Z,45.43
2018-07-27T08:51:08.461Z,45.43
2018-07-27T08:52:08.490Z,45.31
2018-07-27T08:53:08.521Z,45.43
2018-07-27T08:54:08.546Z,45.72
2018-07-27T08:55:29.600Z,45.99
2018-07-27T08:56:08.602Z,45.92
2018-07-27T08:57:08.627Z,45.41
2018-07-27T08:58:08.664Z,45.70
2018-07-27T08:59:08.678Z,45.51
2018-07-27T09:00:08.706Z,45.41
2018-07-27T09:01:29.753Z,45.61
2018-07-27T09:02:08.763Z,45.89
2018-07-27T09:03:08.790Z,45.61
2018-07-27T09:04:08.828Z,45.61
2018-07-27T09:05:08.842Z,46.09
2018-07-27T09:06:08.869Z,45.41
2018-07-27T09:07:29.915Z,45.51
2018-07-27T09:08:08.925Z,45.61
2018-07-27T09:09:08.952Z,45.12
2018-07-27T09:10:09.006Z,45.12
2018-07-27T09:11:09.008Z,45.31
2018-07-27T09:12:09.031Z,45.41
2018-07-27T09:13:30.081Z,45.21
2018-07-27T09:14:09.112Z,44.83
2018-07-27T09:15:09.121Z,45.31
2018-07-27T09:16:09.155Z,45.02
2018-07-27T09:17:09.171Z,44.92
2018-07-27T09:18:09.202Z,44.92
2018-07-27T09:19:30.243Z,44.92
2018-07-27T09:20:09.251Z,44.92
2018-07-27T09:21:09.280Z,44.83
2018-07-27T09:22:09.363Z,44.92
2018-07-27T09:23:09.486Z,45.10
2018-07-27T09:24:09.425Z,44.92
2018-07-27T09:25:30.417Z,44.92
2018-07-27T09:26:09.417Z,44.90
2018-07-27T09:27:09.444Z,44.92
2018-07-27T09:28:09.470Z,45.10
2018-07-27T09:29:09.512Z,45.00
2018-07-27T09:30:09.531Z,44.90
2018-07-27T09:31:31.010Z,44.71
2018-07-27T09:32:09.580Z,44.90
2018-07-27T09:33:09.605Z,45.00
2018-07-27T09:34:09.680Z,44.81
2018-07-27T09:35:09.700Z,44.81
2018-07-27T09:36:09.689Z,45.10
2018-07-27T09:37:30.758Z,45.10
2018-07-27T09:38:09.739Z,45.10
2018-07-27T09:39:09.768Z,45.29
2018-07-27T09:40:09.794Z,45.10
2018-07-27T09:41:09.878Z,45.20
2018-07-27T09:42:09.854Z,45.39
2018-07-27T09:43:30.898Z,45.10
2018-07-27T09:44:09.901Z,45.29
2018-07-27T09:45:09.940Z,45.48
2018-07-27T09:46:09.963Z,45.39
2018-07-27T09:47:09.989Z,45.48
2018-07-27T09:48:10.011Z,45.39
2018-07-27T09:49:31.054Z,45.39
2018-07-27T09:50:10.063Z,45.87
2018-07-27T09:51:10.093Z,45.58
2018-07-27T09:52:10.125Z,46.07
2018-07-27T09:53:10.150Z,45.87
2018-07-27T09:54:10.172Z,45.39
2018-07-27T09:55:31.244Z,45.68
2018-07-27T09:56:10.231Z,45.87
2018-07-27T09:57:10.253Z,45.87
2018-07-27T09:58:10.277Z,46.04
2018-07-27T09:59:10.309Z,45.56
2018-07-27T10:00:10.332Z,45.78
2018-07-27T10:01:31.377Z,45.87
2018-07-27T10:02:10.387Z,45.95
2018-07-27T10:03:10.416Z,45.58
2018-07-27T10:04:10.448Z,45.85
2018-07-27T10:05:10.468Z,45.85
2018-07-27T10:06:10.497Z,45.97
2018-07-27T10:07:31.541Z,45.68
2018-07-27T10:08:10.548Z,45.75
2018-07-27T10:09:10.577Z,46.07
2018-07-27T10:10:11.242Z,45.87
2018-07-27T10:11:10.631Z,45.75
2018-07-27T10:12:10.657Z,45.75
2018-07-27T10:13:31.701Z,46.04
2018-07-27T10:14:10.711Z,45.85
2018-07-27T10:15:10.738Z,45.78
2018-07-27T10:16:10.765Z,45.75
2018-07-27T10:17:10.791Z,45.95
2018-07-27T10:18:10.815Z,45.95
2018-07-27T10:19:31.876Z,46.04
2018-07-27T10:20:10.869Z,46.14
2018-07-27T10:21:10.898Z,46.62
2018-07-27T10:22:10.925Z,46.33
2018-07-27T10:23:10.956Z,46.33
2018-07-27T10:24:11.012Z,46.24
2018-07-27T10:25:32.020Z,46.43
2018-07-27T10:26:11.030Z,46.53
2018-07-27T10:27:11.057Z,46.62
2018-07-27T10:28:11.084Z,46.53
2018-07-27T10:29:11.110Z,46.72
2018-07-27T10:30:11.136Z,46.72
2018-07-27T10:31:32.185Z,46.82
2018-07-27T10:32:11.193Z,46.53
2018-07-27T10:33:11.220Z,46.53
2018-07-27T10:34:11.256Z,46.43
2018-07-27T10:35:11.281Z,46.33
2018-07-27T10:36:11.297Z,46.62
2018-07-27T10:37:32.344Z,47.20
2018-07-27T10:38:11.351Z,47.11
2018-07-27T10:39:11.380Z,47.20
2018-07-27T10:40:11.411Z,47.11
2018-07-27T10:41:11.431Z,47.02
2018-07-27T10:42:11.461Z,47.11
2018-07-27T10:43:32.503Z,47.20
2018-07-27T10:44:11.512Z,47.40
2018-07-27T10:45:11.539Z,47.20
2018-07-27T10:46:11.566Z,47.40
2018-07-27T10:47:11.595Z,47.02
2018-07-27T10:48:11.619Z,47.11
2018-07-27T10:49:32.661Z,47.20
2018-07-27T10:50:11.723Z,47.40
2018-07-27T10:51:11.698Z,47.20
2018-07-27T10:52:11.723Z,47.40
2018-07-27T10:53:11.753Z,47.30
2018-07-27T10:54:11.779Z,47.40
2018-07-27T10:55:32.878Z,47.50
2018-07-27T10:56:11.950Z,47.79
2018-07-27T10:57:11.877Z,47.50
2018-07-27T10:58:11.885Z,48.18
2018-07-27T10:59:11.911Z,48.18
2018-07-27T11:00:11.940Z,48.18
2018-07-27T11:01:32.983Z,47.98
2018-07-27T11:02:11.991Z,47.98
2018-07-27T11:03:12.025Z,47.89
2018-07-27T11:04:12.053Z,47.98
2018-07-27T11:05:12.076Z,47.98
2018-07-27T11:06:12.104Z,47.98
2018-07-27T11:07:33.144Z,47.89
2018-07-27T11:08:12.152Z,47.98
2018-07-27T11:09:12.183Z,48.37
2018-07-27T11:10:12.253Z,48.18
2018-07-27T11:11:12.503Z,48.18
2018-07-27T11:12:12.351Z,48.18
2018-07-27T11:13:33.330Z,48.18
2018-07-27T11:14:12.315Z,48.37
2018-07-27T11:15:12.345Z,48.08
2018-07-27T11:16:12.366Z,48.27
2018-07-27T11:17:12.404Z,48.08
2018-07-27T11:18:12.423Z,47.98
2018-07-27T11:19:33.467Z,48.27
2018-07-27T11:20:12.481Z,47.69
2018-07-27T11:21:12.495Z,47.69
2018-07-27T11:22:12.529Z,47.79
2018-07-27T11:23:12.865Z,47.60
2018-07-27T11:24:12.577Z,47.79
2018-07-27T11:25:33.666Z,47.79
2018-07-27T11:26:12.632Z,47.79
2018-07-27T11:27:12.665Z,48.18
2018-07-27T11:28:12.684Z,47.98
2018-07-27T11:29:12.712Z,48.27
2018-07-27T11:30:12.816Z,47.98
2018-07-27T11:31:33.813Z,47.98
2018-07-27T11:32:12.798Z,48.18
2018-07-27T11:33:12.905Z,48.18
2018-07-27T11:34:12.864Z,48.18
2018-07-27T11:35:12.921Z,48.27
2018-07-27T11:36:12.939Z,47.69
2018-07-27T11:37:33.998Z,47.79
2018-07-27T11:38:13.041Z,47.40
2018-07-27T11:39:13.024Z,47.30
2018-07-27T11:40:13.046Z,47.30
2018-07-27T11:41:13.035Z,47.20
2018-07-27T11:42:13.163Z,47.30
2018-07-27T11:43:34.105Z,47.02
2018-07-27T11:44:13.163Z,47.20
2018-07-27T11:45:13.218Z,47.30
2018-07-27T11:46:13.219Z,47.40
2018-07-27T11:47:13.600Z,46.92
2018-07-27T11:48:13.261Z,47.11
2018-07-27T11:49:34.373Z,46.92
2018-07-27T11:50:13.390Z,47.02
2018-07-27T11:51:13.333Z,46.82
2018-07-27T11:52:13.631Z,46.92
2018-07-27T11:53:13.401Z,47.40
2018-07-27T11:54:13.463Z,46.92
2018-07-27T11:55:34.481Z,46.92
2018-07-27T11:56:13.481Z,47.20
2018-07-27T11:57:13.456Z,46.92
2018-07-27T11:58:13.529Z,46.92
2018-07-27T11:59:13.512Z,47.30
2018-07-27T12:00:13.680Z,47.02
2018-07-27T12:01:34.645Z,47.50
2018-07-27T12:02:13.707Z,47.20
2018-07-27T12:03:14.728Z,47.20
2018-07-27T12:04:13.742Z,47.30
2018-07-27T12:05:13.673Z,47.30
2018-07-27T12:06:13.695Z,47.11
2018-07-27T12:07:34.738Z,47.30
2018-07-27T12:08:13.745Z,47.30
2018-07-27T12:09:13.773Z,47.40
2018-07-27T12:10:13.798Z,47.30
2018-07-27T12:11:13.824Z,47.30
2018-07-27T12:12:13.851Z,47.40
2018-07-27T12:13:34.899Z,47.02
2018-07-27T12:14:13.929Z,47.20
2018-07-27T12:15:14.194Z,47.20
2018-07-27T12:16:13.959Z,47.20
2018-07-27T12:17:13.984Z,47.20
2018-07-27T12:18:14.015Z,47.20
2018-07-27T12:19:35.073Z,47.20
2018-07-27T12:20:14.263Z,47.40
2018-07-27T12:21:14.267Z,47.20
2018-07-27T12:22:14.117Z,47.40
2018-07-27T12:23:14.144Z,47.60
2018-07-27T12:24:14.173Z,47.69
2018-07-27T12:25:35.231Z,47.60
2018-07-27T12:26:14.235Z,48.08
2018-07-27T12:27:14.256Z,47.89
2018-07-27T12:28:14.281Z,47.69
2018-07-27T12:29:14.304Z,48.18
2018-07-27T12:30:14.330Z,47.98
2018-07-27T12:31:35.377Z,48.08
2018-07-27T12:32:14.384Z,47.89
2018-07-27T12:33:14.410Z,48.37
2018-07-27T12:34:14.436Z,48.47
2018-07-27T12:35:14.470Z,48.47
2018-07-27T12:36:14.541Z,48.47
2018-07-27T12:37:35.574Z,48.47
2018-07-27T12:38:14.550Z,48.37
2018-07-27T12:39:14.570Z,48.47
2018-07-27T12:40:14.598Z,48.57
2018-07-27T12:41:14.625Z,48.85
2018-07-27T12:42:14.648Z,48.85
2018-07-27T12:43:35.691Z,49.05
2018-07-27T12:44:14.702Z,48.95
2018-07-27T12:45:14.728Z,48.66
2018-07-27T12:46:14.754Z,49.15
2018-07-27T12:47:14.791Z,48.95
2018-07-27T12:48:14.809Z,48.95
2018-07-27T12:49:35.853Z,48.95
2018-07-27T12:50:14.859Z,49.24
2018-07-27T12:51:14.892Z,49.24
2018-07-27T12:52:14.912Z,49.63
2018-07-27T12:53:14.942Z,50.02